sensor_id;sensor_type;location;lat;lon;timestamp;P1;durP1;ratioP1;P2;durP2;ratioP2
67092;SDS011;54011;50.772;7.730;2023-06-26T00:00:51;10.95;;;7.20;;
67092;SDS011;54011;50.772;7.730;2023-06-26T00:03:17;11.48;;;6.13;;
67092;SDS011;54011;50.772;7.730;2023-06-26T00:05:43;13.70;;;7.22;;
67092;SDS011;54011;50.772;7.730;2023-06-26T00:08:10;12.52;;;6.72;;
67092;SDS011;54011;50.772;7.730;2023-06-26T00:10:36;16.80;;;6.47;;
67092;SDS011;54011;50.772;7.730;2023-06-26T00:13:02;11.73;;;6.50;;
67092;SDS011;54011;50.772;7.730;2023-06-26T00:15:29;9.35;;;6.45;;
67092;SDS011;54011;50.772;7.730;2023-06-26T00:17:58;10.95;;;6.85;;
67092;SDS011;54011;50.772;7.730;2023-06-26T00:20:24;11.07;;;6.70;;
67092;SDS011;54011;50.772;7.730;2023-06-26T00:22:50;9.93;;;6.35;;
67092;SDS011;54011;50.772;7.730;2023-06-26T00:25:16;12.82;;;6.25;;
67092;SDS011;54011;50.772;7.730;2023-06-26T00:27:42;13.32;;;6.85;;
67092;SDS011;54011;50.772;7.730;2023-06-26T00:30:09;15.18;;;6.78;;
67092;SDS011;54011;50.772;7.730;2023-06-26T00:32:35;11.65;;;6.82;;
67092;SDS011;54011;50.772;7.730;2023-06-26T00:35:02;10.75;;;6.47;;
67092;SDS011;54011;50.772;7.730;2023-06-26T00:37:29;9.48;;;6.57;;
67092;SDS011;54011;50.772;7.730;2023-06-26T00:39:54;10.75;;;6.40;;
67092;SDS011;54011;50.772;7.730;2023-06-26T00:42:22;11.00;;;6.55;;
67092;SDS011;54011;50.772;7.730;2023-06-26T00:44:47;9.35;;;6.05;;
67092;SDS011;54011;50.772;7.730;2023-06-26T00:47:13;8.90;;;6.10;;
67092;SDS011;54011;50.772;7.730;2023-06-26T00:49:42;15.03;;;7.10;;
67092;SDS011;54011;50.772;7.730;2023-06-26T00:52:08;10.55;;;6.80;;
67092;SDS011;54011;50.772;7.730;2023-06-26T00:54:34;9.93;;;6.13;;
67092;SDS011;54011;50.772;7.730;2023-06-26T00:57:00;9.30;;;6.10;;
67092;SDS011;54011;50.772;7.730;2023-06-26T00:59:25;9.35;;;6.25;;
67092;SDS011;54011;50.772;7.730;2023-06-26T01:01:53;9.60;;;6.30;;
67092;SDS011;54011;50.772;7.730;2023-06-26T01:04:18;11.35;;;5.97;;
67092;SDS011;54011;50.772;7.730;2023-06-26T01:06:47;8.85;;;5.68;;
67092;SDS011;54011;50.772;7.730;2023-06-26T01:09:16;12.05;;;6.30;;
67092;SDS011;54011;50.772;7.730;2023-06-26T01:11:45;12.38;;;6.32;;
67092;SDS011;54011;50.772;7.730;2023-06-26T01:14:12;10.80;;;6.57;;
67092;SDS011;54011;50.772;7.730;2023-06-26T01:16:38;9.38;;;5.93;;
67092;SDS011;54011;50.772;7.730;2023-06-26T01:19:08;12.25;;;6.60;;
67092;SDS011;54011;50.772;7.730;2023-06-26T01:21:39;10.30;;;6.20;;
67092;SDS011;54011;50.772;7.730;2023-06-26T01:24:15;9.70;;;6.13;;
67092;SDS011;54011;50.772;7.730;2023-06-26T01:26:48;12.20;;;6.20;;
67092;SDS011;54011;50.772;7.730;2023-06-26T01:29:16;10.93;;;6.10;;
67092;SDS011;54011;50.772;7.730;2023-06-26T01:31:43;9.63;;;6.72;;
67092;SDS011;54011;50.772;7.730;2023-06-26T01:34:11;10.35;;;5.95;;
67092;SDS011;54011;50.772;7.730;2023-06-26T01:36:38;15.68;;;6.25;;
67092;SDS011;54011;50.772;7.730;2023-06-26T01:39:05;8.38;;;6.22;;
67092;SDS011;54011;50.772;7.730;2023-06-26T01:41:32;10.07;;;6.60;;
67092;SDS011;54011;50.772;7.730;2023-06-26T01:44:05;10.63;;;6.20;;
67092;SDS011;54011;50.772;7.730;2023-06-26T01:57:54;9.40;;;6.55;;
67092;SDS011;54011;50.772;7.730;2023-06-26T02:00:22;14.32;;;6.93;;
67092;SDS011;54011;50.772;7.730;2023-06-26T02:02:49;11.75;;;6.57;;
67092;SDS011;54011;50.772;7.730;2023-06-26T02:05:16;12.30;;;7.25;;
67092;SDS011;54011;50.772;7.730;2023-06-26T02:07:43;12.48;;;7.10;;
67092;SDS011;54011;50.772;7.730;2023-06-26T02:10:09;10.77;;;7.15;;
67092;SDS011;54011;50.772;7.730;2023-06-26T02:12:36;8.98;;;6.40;;
67092;SDS011;54011;50.772;7.730;2023-06-26T02:15:02;10.15;;;6.25;;
67092;SDS011;54011;50.772;7.730;2023-06-26T02:17:29;11.63;;;6.70;;
67092;SDS011;54011;50.772;7.730;2023-06-26T02:19:55;11.70;;;7.07;;
67092;SDS011;54011;50.772;7.730;2023-06-26T02:22:20;11.45;;;6.70;;
67092;SDS011;54011;50.772;7.730;2023-06-26T02:24:47;12.73;;;7.00;;
67092;SDS011;54011;50.772;7.730;2023-06-26T02:27:12;10.57;;;7.00;;
67092;SDS011;54011;50.772;7.730;2023-06-26T02:29:39;14.18;;;7.40;;
67092;SDS011;54011;50.772;7.730;2023-06-26T02:32:07;11.55;;;7.07;;
67092;SDS011;54011;50.772;7.730;2023-06-26T02:34:35;8.85;;;6.50;;
67092;SDS011;54011;50.772;7.730;2023-06-26T02:37:00;10.23;;;6.47;;
67092;SDS011;54011;50.772;7.730;2023-06-26T02:39:26;10.45;;;6.78;;
67092;SDS011;54011;50.772;7.730;2023-06-26T02:41:52;8.80;;;6.47;;
67092;SDS011;54011;50.772;7.730;2023-06-26T02:44:22;10.50;;;6.78;;
67092;SDS011;54011;50.772;7.730;2023-06-26T02:46:47;14.93;;;6.78;;
67092;SDS011;54011;50.772;7.730;2023-06-26T02:49:13;10.00;;;6.43;;
67092;SDS011;54011;50.772;7.730;2023-06-26T02:51:41;10.25;;;6.22;;
67092;SDS011;54011;50.772;7.730;2023-06-26T02:54:24;12.30;;;6.63;;
67092;SDS011;54011;50.772;7.730;2023-06-26T02:56:54;11.70;;;6.20;;
67092;SDS011;54011;50.772;7.730;2023-06-26T02:59:25;12.73;;;7.30;;
67092;SDS011;54011;50.772;7.730;2023-06-26T03:01:52;10.70;;;6.28;;
67092;SDS011;54011;50.772;7.730;2023-06-26T03:04:18;14.23;;;6.75;;
67092;SDS011;54011;50.772;7.730;2023-06-26T03:06:46;11.27;;;6.72;;
67092;SDS011;54011;50.772;7.730;2023-06-26T03:09:14;9.80;;;6.75;;
67092;SDS011;54011;50.772;7.730;2023-06-26T03:11:42;9.45;;;6.65;;
67092;SDS011;54011;50.772;7.730;2023-06-26T03:14:09;11.10;;;6.20;;
67092;SDS011;54011;50.772;7.730;2023-06-26T03:16:35;10.50;;;6.85;;
67092;SDS011;54011;50.772;7.730;2023-06-26T03:19:03;11.55;;;6.65;;
67092;SDS011;54011;50.772;7.730;2023-06-26T03:21:32;10.50;;;6.63;;
67092;SDS011;54011;50.772;7.730;2023-06-26T03:23:58;10.43;;;6.53;;
67092;SDS011;54011;50.772;7.730;2023-06-26T03:26:24;10.57;;;7.30;;
67092;SDS011;54011;50.772;7.730;2023-06-26T03:28:53;12.32;;;6.82;;
67092;SDS011;54011;50.772;7.730;2023-06-26T03:31:20;11.15;;;6.88;;
67092;SDS011;54011;50.772;7.730;2023-06-26T03:33:47;10.10;;;6.90;;
67092;SDS011;54011;50.772;7.730;2023-06-26T03:36:14;13.63;;;7.40;;
67092;SDS011;54011;50.772;7.730;2023-06-26T03:38:40;13.07;;;6.88;;
67092;SDS011;54011;50.772;7.730;2023-06-26T03:41:07;12.75;;;6.55;;
67092;SDS011;54011;50.772;7.730;2023-06-26T03:43:33;12.05;;;6.47;;
67092;SDS011;54011;50.772;7.730;2023-06-26T03:46:15;14.15;;;6.35;;
67092;SDS011;54011;50.772;7.730;2023-06-26T03:48:42;13.02;;;6.95;;
67092;SDS011;54011;50.772;7.730;2023-06-26T03:51:09;10.10;;;6.25;;
67092;SDS011;54011;50.772;7.730;2023-06-26T03:53:37;11.85;;;7.00;;
67092;SDS011;54011;50.772;7.730;2023-06-26T03:56:02;10.60;;;6.60;;
67092;SDS011;54011;50.772;7.730;2023-06-26T03:58:28;11.05;;;6.90;;
67092;SDS011;54011;50.772;7.730;2023-06-26T04:00:53;12.40;;;7.63;;
67092;SDS011;54011;50.772;7.730;2023-06-26T04:03:21;11.93;;;6.57;;
67092;SDS011;54011;50.772;7.730;2023-06-26T04:05:46;9.32;;;6.80;;
67092;SDS011;54011;50.772;7.730;2023-06-26T04:08:13;9.82;;;6.88;;
67092;SDS011;54011;50.772;7.730;2023-06-26T04:10:38;12.90;;;6.43;;
67092;SDS011;54011;50.772;7.730;2023-06-26T04:13:04;9.23;;;6.38;;
67092;SDS011;54011;50.772;7.730;2023-06-26T04:15:30;10.95;;;6.70;;
67092;SDS011;54011;50.772;7.730;2023-06-26T04:17:56;15.15;;;6.88;;
67092;SDS011;54011;50.772;7.730;2023-06-26T04:20:22;8.50;;;5.90;;
67092;SDS011;54011;50.772;7.730;2023-06-26T04:22:47;9.95;;;6.50;;
67092;SDS011;54011;50.772;7.730;2023-06-26T04:25:13;10.65;;;6.38;;
67092;SDS011;54011;50.772;7.730;2023-06-26T04:27:39;11.15;;;7.10;;
67092;SDS011;54011;50.772;7.730;2023-06-26T04:30:05;10.40;;;6.70;;
67092;SDS011;54011;50.772;7.730;2023-06-26T04:32:35;11.88;;;6.15;;
67092;SDS011;54011;50.772;7.730;2023-06-26T04:35:01;9.00;;;5.82;;
67092;SDS011;54011;50.772;7.730;2023-06-26T04:37:28;9.23;;;6.28;;
67092;SDS011;54011;50.772;7.730;2023-06-26T04:39:54;12.23;;;6.22;;
67092;SDS011;54011;50.772;7.730;2023-06-26T04:42:20;9.77;;;6.43;;
67092;SDS011;54011;50.772;7.730;2023-06-26T04:44:48;11.63;;;5.78;;
67092;SDS011;54011;50.772;7.730;2023-06-26T04:47:14;9.52;;;5.90;;
67092;SDS011;54011;50.772;7.730;2023-06-26T04:49:41;9.45;;;6.13;;
67092;SDS011;54011;50.772;7.730;2023-06-26T04:52:11;9.80;;;5.88;;
67092;SDS011;54011;50.772;7.730;2023-06-26T04:54:38;11.93;;;6.22;;
67092;SDS011;54011;50.772;7.730;2023-06-26T04:57:04;11.45;;;5.90;;
67092;SDS011;54011;50.772;7.730;2023-06-26T04:59:31;9.95;;;6.38;;
67092;SDS011;54011;50.772;7.730;2023-06-26T05:01:56;9.95;;;5.95;;
67092;SDS011;54011;50.772;7.730;2023-06-26T05:04:22;9.77;;;6.60;;
67092;SDS011;54011;50.772;7.730;2023-06-26T05:06:49;10.38;;;6.05;;
67092;SDS011;54011;50.772;7.730;2023-06-26T05:09:16;8.80;;;5.90;;
67092;SDS011;54011;50.772;7.730;2023-06-26T05:11:42;9.48;;;6.47;;
67092;SDS011;54011;50.772;7.730;2023-06-26T05:14:07;11.65;;;5.88;;
67092;SDS011;54011;50.772;7.730;2023-06-26T05:16:34;9.65;;;5.55;;
67092;SDS011;54011;50.772;7.730;2023-06-26T05:19:00;8.95;;;5.90;;
67092;SDS011;54011;50.772;7.730;2023-06-26T05:21:27;11.20;;;6.00;;
67092;SDS011;54011;50.772;7.730;2023-06-26T05:23:53;8.30;;;5.28;;
67092;SDS011;54011;50.772;7.730;2023-06-26T05:26:21;10.20;;;5.68;;
67092;SDS011;54011;50.772;7.730;2023-06-26T05:28:48;8.95;;;5.70;;
67092;SDS011;54011;50.772;7.730;2023-06-26T05:31:15;8.38;;;5.57;;
67092;SDS011;54011;50.772;7.730;2023-06-26T05:33:43;12.18;;;5.90;;
67092;SDS011;54011;50.772;7.730;2023-06-26T05:36:09;9.05;;;5.95;;
67092;SDS011;54011;50.772;7.730;2023-06-26T05:38:38;10.98;;;6.22;;
67092;SDS011;54011;50.772;7.730;2023-06-26T05:41:04;9.10;;;6.03;;
67092;SDS011;54011;50.772;7.730;2023-06-26T05:43:30;7.75;;;5.20;;
67092;SDS011;54011;50.772;7.730;2023-06-26T05:45:56;10.10;;;5.82;;
67092;SDS011;54011;50.772;7.730;2023-06-26T05:48:23;8.25;;;5.13;;
67092;SDS011;54011;50.772;7.730;2023-06-26T05:50:49;9.48;;;5.43;;
67092;SDS011;54011;50.772;7.730;2023-06-26T05:53:14;10.77;;;5.65;;
67092;SDS011;54011;50.772;7.730;2023-06-26T05:55:40;9.35;;;5.55;;
67092;SDS011;54011;50.772;7.730;2023-06-26T05:58:10;10.10;;;5.23;;
67092;SDS011;54011;50.772;7.730;2023-06-26T06:00:37;8.43;;;5.22;;
67092;SDS011;54011;50.772;7.730;2023-06-26T06:03:05;16.20;;;5.70;;
67092;SDS011;54011;50.772;7.730;2023-06-26T06:05:30;7.82;;;4.82;;
67092;SDS011;54011;50.772;7.730;2023-06-26T06:07:55;11.02;;;5.43;;
67092;SDS011;54011;50.772;7.730;2023-06-26T06:10:21;8.25;;;4.90;;
67092;SDS011;54011;50.772;7.730;2023-06-26T06:12:46;8.50;;;5.20;;
67092;SDS011;54011;50.772;7.730;2023-06-26T06:15:12;11.52;;;4.82;;
67092;SDS011;54011;50.772;7.730;2023-06-26T06:17:39;8.35;;;5.00;;
67092;SDS011;54011;50.772;7.730;2023-06-26T06:20:04;11.45;;;5.38;;
67092;SDS011;54011;50.772;7.730;2023-06-26T06:22:32;8.68;;;5.57;;
67092;SDS011;54011;50.772;7.730;2023-06-26T06:24:58;10.73;;;5.70;;
67092;SDS011;54011;50.772;7.730;2023-06-26T06:27:25;7.57;;;5.28;;
67092;SDS011;54011;50.772;7.730;2023-06-26T06:29:52;9.38;;;5.22;;
67092;SDS011;54011;50.772;7.730;2023-06-26T06:32:17;8.88;;;5.05;;
67092;SDS011;54011;50.772;7.730;2023-06-26T06:34:43;9.05;;;5.63;;
67092;SDS011;54011;50.772;7.730;2023-06-26T06:37:08;11.05;;;5.53;;
67092;SDS011;54011;50.772;7.730;2023-06-26T06:39:33;11.18;;;5.53;;
67092;SDS011;54011;50.772;7.730;2023-06-26T06:42:01;9.02;;;5.50;;
67092;SDS011;54011;50.772;7.730;2023-06-26T06:44:26;10.13;;;4.85;;
67092;SDS011;54011;50.772;7.730;2023-06-26T06:46:51;8.98;;;5.03;;
67092;SDS011;54011;50.772;7.730;2023-06-26T06:49:17;9.73;;;5.18;;
67092;SDS011;54011;50.772;7.730;2023-06-26T06:51:42;22.25;;;5.75;;
67092;SDS011;54011;50.772;7.730;2023-06-26T06:54:08;10.95;;;4.72;;
67092;SDS011;54011;50.772;7.730;2023-06-26T06:56:33;11.50;;;5.20;;
67092;SDS011;54011;50.772;7.730;2023-06-26T06:58:59;8.73;;;4.65;;
67092;SDS011;54011;50.772;7.730;2023-06-26T07:01:26;9.75;;;5.20;;
67092;SDS011;54011;50.772;7.730;2023-06-26T07:03:55;16.90;;;5.32;;
67092;SDS011;54011;50.772;7.730;2023-06-26T07:06:21;12.02;;;5.00;;
67092;SDS011;54011;50.772;7.730;2023-06-26T07:08:47;9.82;;;5.07;;
67092;SDS011;54011;50.772;7.730;2023-06-26T07:11:12;11.82;;;5.13;;
67092;SDS011;54011;50.772;7.730;2023-06-26T07:13:37;9.52;;;5.00;;
67092;SDS011;54011;50.772;7.730;2023-06-26T07:16:03;8.95;;;4.78;;
67092;SDS011;54011;50.772;7.730;2023-06-26T07:18:28;9.32;;;5.20;;
67092;SDS011;54011;50.772;7.730;2023-06-26T07:20:54;7.63;;;4.57;;
67092;SDS011;54011;50.772;7.730;2023-06-26T07:23:20;8.52;;;4.82;;
67092;SDS011;54011;50.772;7.730;2023-06-26T07:25:46;8.23;;;4.60;;
67092;SDS011;54011;50.772;7.730;2023-06-26T07:28:13;8.35;;;3.75;;
67092;SDS011;54011;50.772;7.730;2023-06-26T07:30:39;12.15;;;5.40;;
67092;SDS011;54011;50.772;7.730;2023-06-26T07:33:06;8.43;;;4.63;;
67092;SDS011;54011;50.772;7.730;2023-06-26T07:35:33;10.40;;;5.00;;
67092;SDS011;54011;50.772;7.730;2023-06-26T07:37:58;11.07;;;4.93;;
67092;SDS011;54011;50.772;7.730;2023-06-26T07:40:23;7.53;;;4.85;;
67092;SDS011;54011;50.772;7.730;2023-06-26T07:42:50;8.93;;;4.75;;
67092;SDS011;54011;50.772;7.730;2023-06-26T07:45:17;11.75;;;5.28;;
67092;SDS011;54011;50.772;7.730;2023-06-26T07:47:44;8.23;;;4.50;;
67092;SDS011;54011;50.772;7.730;2023-06-26T07:50:09;9.48;;;5.03;;
67092;SDS011;54011;50.772;7.730;2023-06-26T07:52:37;8.32;;;4.60;;
67092;SDS011;54011;50.772;7.730;2023-06-26T07:55:02;9.50;;;4.60;;
67092;SDS011;54011;50.772;7.730;2023-06-26T07:57:29;9.70;;;4.35;;
67092;SDS011;54011;50.772;7.730;2023-06-26T07:59:56;9.70;;;4.60;;
67092;SDS011;54011;50.772;7.730;2023-06-26T08:02:22;8.75;;;4.65;;
67092;SDS011;54011;50.772;7.730;2023-06-26T08:04:48;8.68;;;3.97;;
67092;SDS011;54011;50.772;7.730;2023-06-26T08:07:15;10.05;;;4.35;;
67092;SDS011;54011;50.772;7.730;2023-06-26T08:09:40;11.80;;;4.18;;
67092;SDS011;54011;50.772;7.730;2023-06-26T08:12:07;7.45;;;3.85;;
67092;SDS011;54011;50.772;7.730;2023-06-26T08:14:33;10.73;;;4.53;;
67092;SDS011;54011;50.772;7.730;2023-06-26T08:16:59;9.10;;;4.05;;
67092;SDS011;54011;50.772;7.730;2023-06-26T08:19:25;10.50;;;3.88;;
67092;SDS011;54011;50.772;7.730;2023-06-26T08:21:51;8.65;;;4.13;;
67092;SDS011;54011;50.772;7.730;2023-06-26T08:24:17;8.23;;;3.80;;
67092;SDS011;54011;50.772;7.730;2023-06-26T08:26:47;16.90;;;4.85;;
67092;SDS011;54011;50.772;7.730;2023-06-26T08:29:13;8.80;;;3.65;;
67092;SDS011;54011;50.772;7.730;2023-06-26T08:31:39;11.05;;;4.00;;
67092;SDS011;54011;50.772;7.730;2023-06-26T08:34:07;8.82;;;3.97;;
67092;SDS011;54011;50.772;7.730;2023-06-26T08:36:33;8.48;;;4.13;;
67092;SDS011;54011;50.772;7.730;2023-06-26T08:39:00;10.52;;;4.40;;
67092;SDS011;54011;50.772;7.730;2023-06-26T08:41:28;9.48;;;3.95;;
67092;SDS011;54011;50.772;7.730;2023-06-26T08:43:55;10.05;;;4.68;;
67092;SDS011;54011;50.772;7.730;2023-06-26T08:46:20;13.15;;;4.32;;
67092;SDS011;54011;50.772;7.730;2023-06-26T08:48:56;11.43;;;4.15;;
67092;SDS011;54011;50.772;7.730;2023-06-26T08:51:27;12.57;;;4.53;;
67092;SDS011;54011;50.772;7.730;2023-06-26T08:53:56;7.68;;;4.30;;
67092;SDS011;54011;50.772;7.730;2023-06-26T08:56:28;14.45;;;4.85;;
67092;SDS011;54011;50.772;7.730;2023-06-26T08:58:59;8.75;;;4.72;;
67092;SDS011;54011;50.772;7.730;2023-06-26T09:01:26;9.50;;;4.95;;
67092;SDS011;54011;50.772;7.730;2023-06-26T09:03:53;10.18;;;4.53;;
67092;SDS011;54011;50.772;7.730;2023-06-26T09:06:19;14.60;;;4.43;;
67092;SDS011;54011;50.772;7.730;2023-06-26T09:08:45;8.88;;;4.03;;
67092;SDS011;54011;50.772;7.730;2023-06-26T09:11:11;10.13;;;4.40;;
67092;SDS011;54011;50.772;7.730;2023-06-26T09:13:36;8.50;;;3.40;;
67092;SDS011;54011;50.772;7.730;2023-06-26T09:16:06;10.15;;;3.95;;
67092;SDS011;54011;50.772;7.730;2023-06-26T09:18:34;10.50;;;4.75;;
67092;SDS011;54011;50.772;7.730;2023-06-26T09:21:07;6.70;;;3.27;;
67092;SDS011;54011;50.772;7.730;2023-06-26T09:23:34;9.85;;;4.22;;
67092;SDS011;54011;50.772;7.730;2023-06-26T09:26:02;10.95;;;3.75;;
67092;SDS011;54011;50.772;7.730;2023-06-26T09:28:29;6.72;;;2.63;;
67092;SDS011;54011;50.772;7.730;2023-06-26T09:30:57;8.55;;;4.47;;
67092;SDS011;54011;50.772;7.730;2023-06-26T09:33:25;11.20;;;4.10;;
67092;SDS011;54011;50.772;7.730;2023-06-26T09:35:52;12.55;;;4.57;;
67092;SDS011;54011;50.772;7.730;2023-06-26T09:38:17;10.15;;;4.57;;
67092;SDS011;54011;50.772;7.730;2023-06-26T09:40:43;9.70;;;4.45;;
67092;SDS011;54011;50.772;7.730;2023-06-26T09:43:09;8.45;;;3.55;;
67092;SDS011;54011;50.772;7.730;2023-06-26T09:45:39;12.32;;;4.38;;
67092;SDS011;54011;50.772;7.730;2023-06-26T09:48:06;9.23;;;4.65;;
67092;SDS011;54011;50.772;7.730;2023-06-26T09:50:38;7.63;;;3.85;;
67092;SDS011;54011;50.772;7.730;2023-06-26T09:53:07;9.75;;;4.65;;
67092;SDS011;54011;50.772;7.730;2023-06-26T09:55:35;10.98;;;3.95;;
67092;SDS011;54011;50.772;7.730;2023-06-26T09:58:02;9.02;;;3.00;;
67092;SDS011;54011;50.772;7.730;2023-06-26T10:00:30;7.78;;;3.88;;
67092;SDS011;54011;50.772;7.730;2023-06-26T10:02:58;13.38;;;3.60;;
67092;SDS011;54011;50.772;7.730;2023-06-26T10:05:26;8.50;;;4.03;;
67092;SDS011;54011;50.772;7.730;2023-06-26T10:07:52;7.28;;;4.00;;
67092;SDS011;54011;50.772;7.730;2023-06-26T10:10:22;6.93;;;3.40;;
67092;SDS011;54011;50.772;7.730;2023-06-26T10:12:48;11.02;;;4.00;;
67092;SDS011;54011;50.772;7.730;2023-06-26T10:15:16;10.35;;;4.05;;
67092;SDS011;54011;50.772;7.730;2023-06-26T10:17:43;9.48;;;3.88;;
67092;SDS011;54011;50.772;7.730;2023-06-26T10:20:12;9.85;;;4.00;;
67092;SDS011;54011;50.772;7.730;2023-06-26T10:22:41;11.68;;;3.72;;
67092;SDS011;54011;50.772;7.730;2023-06-26T10:25:10;8.43;;;4.00;;
67092;SDS011;54011;50.772;7.730;2023-06-26T10:27:38;8.38;;;3.85;;
67092;SDS011;54011;50.772;7.730;2023-06-26T10:30:12;8.90;;;3.90;;
67092;SDS011;54011;50.772;7.730;2023-06-26T10:32:41;11.73;;;3.60;;
67092;SDS011;54011;50.772;7.730;2023-06-26T10:35:07;10.45;;;3.83;;
67092;SDS011;54011;50.772;7.730;2023-06-26T10:37:45;10.75;;;3.47;;
67092;SDS011;54011;50.772;7.730;2023-06-26T10:40:20;9.13;;;3.83;;
67092;SDS011;54011;50.772;7.730;2023-06-26T10:42:49;7.93;;;3.72;;
67092;SDS011;54011;50.772;7.730;2023-06-26T10:45:21;7.85;;;3.65;;
67092;SDS011;54011;50.772;7.730;2023-06-26T10:47:47;8.07;;;3.50;;
67092;SDS011;54011;50.772;7.730;2023-06-26T10:50:35;11.98;;;3.42;;
67092;SDS011;54011;50.772;7.730;2023-06-26T10:53:11;9.95;;;3.42;;
67092;SDS011;54011;50.772;7.730;2023-06-26T10:55:49;7.00;;;2.95;;
67092;SDS011;54011;50.772;7.730;2023-06-26T11:03:40;8.18;;;3.25;;
67092;SDS011;54011;50.772;7.730;2023-06-26T11:08:52;10.70;;;3.30;;
67092;SDS011;54011;50.772;7.730;2023-06-26T11:11:21;8.60;;;3.33;;
67092;SDS011;54011;50.772;7.730;2023-06-26T11:14:08;11.90;;;3.13;;
67092;SDS011;54011;50.772;7.730;2023-06-26T11:16:35;6.10;;;2.78;;
67092;SDS011;54011;50.772;7.730;2023-06-26T11:19:01;10.10;;;2.95;;
67092;SDS011;54011;50.772;7.730;2023-06-26T11:21:29;6.15;;;2.53;;
67092;SDS011;54011;50.772;7.730;2023-06-26T11:23:55;7.35;;;2.80;;
67092;SDS011;54011;50.772;7.730;2023-06-26T11:26:28;7.40;;;2.83;;
67092;SDS011;54011;50.772;7.730;2023-06-26T11:28:55;6.35;;;2.65;;
67092;SDS011;54011;50.772;7.730;2023-06-26T11:33:52;8.63;;;2.80;;
67092;SDS011;54011;50.772;7.730;2023-06-26T11:36:22;5.43;;;2.40;;
67092;SDS011;54011;50.772;7.730;2023-06-26T11:38:53;8.85;;;2.55;;
67092;SDS011;54011;50.772;7.730;2023-06-26T11:41:24;6.47;;;2.33;;
67092;SDS011;54011;50.772;7.730;2023-06-26T11:43:54;5.03;;;1.80;;
67092;SDS011;54011;50.772;7.730;2023-06-26T11:46:21;7.72;;;2.60;;
67092;SDS011;54011;50.772;7.730;2023-06-26T11:48:48;10.73;;;2.78;;
67092;SDS011;54011;50.772;7.730;2023-06-26T11:51:15;8.00;;;2.60;;
67092;SDS011;54011;50.772;7.730;2023-06-26T11:53:41;5.38;;;2.60;;
67092;SDS011;54011;50.772;7.730;2023-06-26T11:56:12;7.43;;;2.80;;
67092;SDS011;54011;50.772;7.730;2023-06-26T11:58:59;11.18;;;3.00;;
67092;SDS011;54011;50.772;7.730;2023-06-26T12:01:35;7.95;;;2.60;;
67092;SDS011;54011;50.772;7.730;2023-06-26T12:04:04;7.20;;;2.55;;
67092;SDS011;54011;50.772;7.730;2023-06-26T12:06:36;5.80;;;2.38;;
67092;SDS011;54011;50.772;7.730;2023-06-26T12:09:05;6.57;;;2.40;;
67092;SDS011;54011;50.772;7.730;2023-06-26T12:11:34;5.57;;;2.03;;
67092;SDS011;54011;50.772;7.730;2023-06-26T12:14:02;6.20;;;2.30;;
67092;SDS011;54011;50.772;7.730;2023-06-26T12:16:30;7.32;;;2.20;;
67092;SDS011;54011;50.772;7.730;2023-06-26T12:18:58;8.00;;;2.80;;
67092;SDS011;54011;50.772;7.730;2023-06-26T12:24:06;7.15;;;2.22;;
67092;SDS011;54011;50.772;7.730;2023-06-26T12:26:33;8.77;;;2.40;;
67092;SDS011;54011;50.772;7.730;2023-06-26T12:29:05;7.78;;;1.83;;
67092;SDS011;54011;50.772;7.730;2023-06-26T12:31:31;5.40;;;1.98;;
67092;SDS011;54011;50.772;7.730;2023-06-26T12:33:58;9.00;;;2.08;;
67092;SDS011;54011;50.772;7.730;2023-06-26T12:36:26;6.28;;;2.20;;
67092;SDS011;54011;50.772;7.730;2023-06-26T12:38:54;8.93;;;2.00;;
67092;SDS011;54011;50.772;7.730;2023-06-26T12:41:25;6.60;;;2.05;;
67092;SDS011;54011;50.772;7.730;2023-06-26T12:44:00;9.68;;;1.83;;
67092;SDS011;54011;50.772;7.730;2023-06-26T12:46:34;5.82;;;2.00;;
67092;SDS011;54011;50.772;7.730;2023-06-26T12:49:02;11.63;;;2.85;;
67092;SDS011;54011;50.772;7.730;2023-06-26T12:51:30;6.22;;;2.20;;
67092;SDS011;54011;50.772;7.730;2023-06-26T12:53:57;8.63;;;2.42;;
67092;SDS011;54011;50.772;7.730;2023-06-26T12:56:23;12.55;;;2.53;;
67092;SDS011;54011;50.772;7.730;2023-06-26T12:58:49;10.02;;;2.67;;
67092;SDS011;54011;50.772;7.730;2023-06-26T13:01:15;4.57;;;1.88;;
67092;SDS011;54011;50.772;7.730;2023-06-26T13:03:45;8.18;;;2.33;;
67092;SDS011;54011;50.772;7.730;2023-06-26T13:06:13;6.70;;;1.73;;
67092;SDS011;54011;50.772;7.730;2023-06-26T13:08:40;6.03;;;1.98;;
67092;SDS011;54011;50.772;7.730;2023-06-26T13:11:08;7.70;;;2.20;;
67092;SDS011;54011;50.772;7.730;2023-06-26T13:13:36;4.05;;;1.65;;
67092;SDS011;54011;50.772;7.730;2023-06-26T13:16:01;4.55;;;1.33;;
67092;SDS011;54011;50.772;7.730;2023-06-26T13:18:27;5.57;;;2.10;;
67092;SDS011;54011;50.772;7.730;2023-06-26T13:20:54;6.85;;;1.90;;
67092;SDS011;54011;50.772;7.730;2023-06-26T13:23:20;9.55;;;2.08;;
67092;SDS011;54011;50.772;7.730;2023-06-26T13:25:45;7.93;;;2.30;;
67092;SDS011;54011;50.772;7.730;2023-06-26T13:28:11;7.40;;;2.10;;
67092;SDS011;54011;50.772;7.730;2023-06-26T13:30:38;7.05;;;2.30;;
67092;SDS011;54011;50.772;7.730;2023-06-26T13:33:06;7.18;;;2.10;;
67092;SDS011;54011;50.772;7.730;2023-06-26T13:35:32;8.75;;;2.30;;
67092;SDS011;54011;50.772;7.730;2023-06-26T13:37:57;7.50;;;2.10;;
67092;SDS011;54011;50.772;7.730;2023-06-26T13:40:23;8.57;;;2.15;;
67092;SDS011;54011;50.772;7.730;2023-06-26T13:42:49;8.05;;;2.10;;
67092;SDS011;54011;50.772;7.730;2023-06-26T13:45:15;6.30;;;1.80;;
67092;SDS011;54011;50.772;7.730;2023-06-26T13:47:41;6.70;;;2.22;;
67092;SDS011;54011;50.772;7.730;2023-06-26T13:50:08;11.50;;;2.50;;
67092;SDS011;54011;50.772;7.730;2023-06-26T13:52:36;6.90;;;2.05;;
67092;SDS011;54011;50.772;7.730;2023-06-26T13:55:04;7.30;;;2.10;;
67092;SDS011;54011;50.772;7.730;2023-06-26T13:57:32;6.53;;;1.88;;
67092;SDS011;54011;50.772;7.730;2023-06-26T13:59:58;8.57;;;1.98;;
67092;SDS011;54011;50.772;7.730;2023-06-26T14:02:28;6.43;;;2.00;;
67092;SDS011;54011;50.772;7.730;2023-06-26T14:04:54;4.75;;;1.40;;
67092;SDS011;54011;50.772;7.730;2023-06-26T14:07:21;7.20;;;1.48;;
67092;SDS011;54011;50.772;7.730;2023-06-26T14:09:47;7.05;;;1.98;;
67092;SDS011;54011;50.772;7.730;2023-06-26T14:12:16;7.53;;;1.83;;
67092;SDS011;54011;50.772;7.730;2023-06-26T14:14:43;3.90;;;1.65;;
67092;SDS011;54011;50.772;7.730;2023-06-26T14:17:09;8.35;;;1.60;;
67092;SDS011;54011;50.772;7.730;2023-06-26T14:19:42;3.67;;;1.33;;
67092;SDS011;54011;50.772;7.730;2023-06-26T14:22:11;10.73;;;2.13;;
67092;SDS011;54011;50.772;7.730;2023-06-26T14:24:38;6.82;;;1.80;;
67092;SDS011;54011;50.772;7.730;2023-06-26T14:27:03;13.70;;;2.10;;
67092;SDS011;54011;50.772;7.730;2023-06-26T14:29:33;12.50;;;2.17;;
67092;SDS011;54011;50.772;7.730;2023-06-26T14:34:25;10.02;;;2.00;;
67092;SDS011;54011;50.772;7.730;2023-06-26T14:36:52;6.40;;;1.90;;
67092;SDS011;54011;50.772;7.730;2023-06-26T14:39:20;6.53;;;1.52;;
67092;SDS011;54011;50.772;7.730;2023-06-26T14:41:46;5.07;;;1.40;;
67092;SDS011;54011;50.772;7.730;2023-06-26T14:44:13;8.10;;;1.80;;
67092;SDS011;54011;50.772;7.730;2023-06-26T14:46:41;4.85;;;1.45;;
67092;SDS011;54011;50.772;7.730;2023-06-26T14:49:13;9.48;;;1.80;;
67092;SDS011;54011;50.772;7.730;2023-06-26T14:51:39;5.75;;;1.40;;
67092;SDS011;54011;50.772;7.730;2023-06-26T14:54:05;10.05;;;1.50;;
67092;SDS011;54011;50.772;7.730;2023-06-26T14:56:32;11.68;;;1.50;;
67092;SDS011;54011;50.772;7.730;2023-06-26T14:59:00;12.80;;;1.80;;
67092;SDS011;54011;50.772;7.730;2023-06-26T15:01:28;6.30;;;1.50;;
67092;SDS011;54011;50.772;7.730;2023-06-26T15:03:55;9.07;;;1.70;;
67092;SDS011;54011;50.772;7.730;2023-06-26T15:06:21;9.40;;;1.73;;
67092;SDS011;54011;50.772;7.730;2023-06-26T15:08:47;8.20;;;1.38;;